Meling Ranch Airstrip

Jump to: basic info | weather | comments

Related pages: nearby airports | nearby navaids

Basic information (top)

Codes: MSJG
Location: lon 30.975328, lat -115.737877
Status: small_airport

Weather (top)

Current conditions for General Rodolfo Sánchez Taboada International Airport 103nm (190km) NNE (rec'd 2015/03/03 19:42Z):

MMML 031942Z 00000KT 10SM SCT200 16/09 A2994 RMK 8/004

Airport forecast for General Rodolfo Sánchez Taboada International Airport 103nm (190km) NNE (rec'd 2015/03/02 18:21Z):

TAF MMML 021715Z 0218/0318 16010KT P6SM SCT015 BKN090 BKN200 
     FM030600 27004KT P6SM SCT015 SCT090 BKN200 
     FM031100 00000KT P6SM SCT080 SCT200 
      BECMG 0314/0316 02005KT

Latest comments (top)

No comments yet for Meling Ranch Airstrip

More... (top)

See also NOTAMs and nearby airports and navaids, or visit the Meling Ranch Airstrip page at the main OurAirports website..